Leon, West Virginia
Current Conditions -  °F | °C
As of 3:15 PM on Saturday 20 Dec 2014 (Local Time) from K3I2 Reporting Station
Overcast Overcast  
Wind Chill: 34°   Ceiling: 2000
Heat Index: 34°   Visibility: 10mi
Dew Point: 28°   Wind: 0mph
Humidity: 81%   Direction: NA
Pressure: 30.26"   Gusts: NA
Location:  38.75°N, 81.96°W
Report Text: K3I2 202015Z AUTO 00000KT 10SM OVC020 01/M02 A3026 RMK AO2
Loading
Personal Weather Stations






























Interactive Weather Map New forecast layout! Learn more

10-Day Weather Forecast

Advertisements
Track Severe Weather on mobile